Scarborough, United Kingdom
Current Conditions -  °F | °C
As of 8:50 AM on Sunday 23 Nov 2014 (Local Time) from EGXV Reporting Station
Moderate Rain Moderate Rain  
Wind Chill:   Ceiling: 4300
Heat Index:   Visibility: 6mi
Dew Point:   Wind: 6mph
Humidity: 100%   Direction: 290°WNW
Pressure: 30"   Gusts: NA
Location:  54.28°N, 0.4°W
Report Text: EGXV 230850Z AUTO 29005KT 9000 RA FEW029/// BKN043/// 08/08 Q1016
Loading
Personal Weather Stations






























Interactive Weather Map New forecast layout! Learn more

10-Day Weather Forecast

Advertisements
Track Severe Weather on mobile